Esmeralda — CCES — position and weather

sailwx.info

Track history (hours):
 
Tides and Currents Weather Stations Pressure Air Temp Water Temp Dewpoint Dewpoint Depression Visibility Wind Speed Wind Dir Waves Ship Positions

Esmeralda (Chile)

Last reported at 2015-Aug-26 10:29 UTC. Time now 2015-Aug-29 20:55 UTC.
Position N 51°30' W 000°01'.

Length 113 m; draft 7 m.

Type: Military. MMSI: 725019006.

Date/timePositionNaut miles runAvg speedWind from/ knotsBaromVisibWave heightAir tempDewpointWater temp
2015-Aug-26 10:29N 51°30' W 000°01'1 0.9
2015-Aug-26 09:31N 51°30' E 000°01'6 6.4
2015-Aug-26 08:34N 51°30' E 000°11'7 7.2
2015-Aug-26 07:34N 51°27' E 000°21'5 4.6
2015-Aug-26 06:34N 51°29' E 000°28'7 6.7
2015-Aug-26 05:33N 51°30' E 000°38'6 5.9
2015-Aug-26 04:33N 51°30' E 000°48'0 0.3
2015-Aug-26 03:33N 51°30' E 000°47'0 0.0
2015-Aug-26 02:34N 51°30' E 000°47'0 0.0
2015-Aug-26 01:33N 51°30' E 000°47'0 0.0
2015-Aug-26 00:33N 51°30' E 000°47'0 0.0
2015-Aug-25 23:34N 51°30' E 000°47'0 0.0
2015-Aug-25 22:33N 51°30' E 000°47'0 0.0
2015-Aug-25 21:34N 51°30' E 000°47'0 0.0
2015-Aug-25 20:34N 51°30' E 000°47'0 0.1
2015-Aug-25 19:34N 51°30' E 000°47'0 0.0
2015-Aug-25 18:33N 51°30' E 000°47'0 0.0
2015-Aug-25 17:33N 51°30' E 000°47'0 0.3
2015-Aug-25 16:33N 51°30' E 000°47'1010.2
2015-Aug-25 15:33N 51°30' E 001°04'1212.1
2015-Aug-25 14:33N 51°28' E 001°23'6 6.3
2015-Aug-25 13:33N 51°26' E 001°32'5 4.6
2015-Aug-25 12:33N 51°29' E 001°39'6 5.7
2015-Aug-25 11:33N 51°31' E 001°48'5 5.0
2015-Aug-25 10:33N 51°32' E 001°55'6 5.5
2015-Aug-25 09:33N 51°34' E 002°04'19 5.3
2015-Aug-25 06:00N 51°48' E 002°24'26 4.3 260 / 261007.0 5.4 1.516.012.620.0
2015-Aug-25 00:00N 52°06' E 002°54'44 7.3 310 / 291001.0 5.4 0.515.014.221.0
2015-Aug-24 18:00N 52°30' E 003°54'7 5.0 170 / 10995.5 5.4 0.517.017.019.0
2015-Aug-24 16:32N 52°31' E 004°06'9 9.0
2015-Aug-24 15:33N 52°30' E 004°20'9 8.9
2015-Aug-24 14:33N 52°28' E 004°34'2 1.9
2015-Aug-24 13:34N 52°28' E 004°37'8 7.5
2015-Aug-24 12:33N 52°25' E 004°49'5 4.6
2015-Aug-24 11:33N 52°23' E 004°55'0 0.0
2015-Aug-24 10:33N 52°23' E 004°55'0 0.0
2015-Aug-24 09:33N 52°23' E 004°55'0 0.0
2015-Aug-24 08:33N 52°23' E 004°55'0 0.0
2015-Aug-24 07:33N 52°23' E 004°55'0 0.0
2015-Aug-24 06:33N 52°23' E 004°55'0 0.0
2015-Aug-24 05:33N 52°23' E 004°55'0 0.0
2015-Aug-24 04:33N 52°23' E 004°55'0 0.0
2015-Aug-24 03:33N 52°23' E 004°55'0 0.0
2015-Aug-24 02:33N 52°23' E 004°55'0 0.0
2015-Aug-24 01:33N 52°23' E 004°55'0 0.0
2015-Aug-24 00:34N 52°23' E 004°55'0 0.0
2015-Aug-23 23:31N 52°23' E 004°55'0 0.0
2015-Aug-23 22:31N 52°23' E 004°55'0 0.0
2015-Aug-23 21:31N 52°23' E 004°55'0 0.0
2015-Aug-23 20:31N 52°23' E 004°55'0 0.0
2015-Aug-23 19:34N 52°23' E 004°55'0 0.0
2015-Aug-23 18:33N 52°23' E 004°55'0 0.0
2015-Aug-23 17:33N 52°23' E 004°55'0 0.0
2015-Aug-23 16:33N 52°23' E 004°55'0 0.0
2015-Aug-23 15:33N 52°23' E 004°55'0 0.0
2015-Aug-23 14:33N 52°23' E 004°55'0 0.0
2015-Aug-23 13:33N 52°23' E 004°55'0 0.0
2015-Aug-23 12:33N 52°23' E 004°55'0 0.0
2015-Aug-23 11:33N 52°23' E 004°55'0 0.0
2015-Aug-23 10:33N 52°23' E 004°55'0 0.0
2015-Aug-23 09:33N 52°23' E 004°55'0 0.0
2015-Aug-23 08:33N 52°23' E 004°55'0 0.0
2015-Aug-23 07:33N 52°23' E 004°55'0 0.0
2015-Aug-23 06:33N 52°23' E 004°55'0 0.0
2015-Aug-23 05:33N 52°23' E 004°55'0 0.0
2015-Aug-23 04:30N 52°23' E 004°55'0 0.0
2015-Aug-23 03:30N 52°23' E 004°55'0 0.0
2015-Aug-23 02:33N 52°23' E 004°55'0 0.0
2015-Aug-23 01:33N 52°23' E 004°55'0 0.0
2015-Aug-23 00:31N 52°23' E 004°55'0 0.0
2015-Aug-22 23:31N 52°23' E 004°55'0 0.0
2015-Aug-22 22:31N 52°23' E 004°55'0 0.0
2015-Aug-22 21:34N 52°23' E 004°55'0 0.0
2015-Aug-22 20:31N 52°23' E 004°55'0 0.0
2015-Aug-22 19:31N 52°23' E 004°55'0 0.0
2015-Aug-22 18:28N 52°23' E 004°55'0 0.0
2015-Aug-22 17:31N 52°23' E 004°55'0 0.0
2015-Aug-22 16:31N 52°23' E 004°55'0 0.0
2015-Aug-22 15:31N 52°23' E 004°55'0 0.0
2015-Aug-22 14:31N 52°23' E 004°55'0 0.0
2015-Aug-22 13:28N 52°23' E 004°55'0 0.0
2015-Aug-22 12:31N 52°23' E 004°55'0 0.0
2015-Aug-22 11:31N 52°23' E 004°55'0 0.0
2015-Aug-22 10:31N 52°23' E 004°55'0 0.0
2015-Aug-22 09:32N 52°23' E 004°55'0 0.0
2015-Aug-22 08:32N 52°23' E 004°55'0 0.0
2015-Aug-22 07:32N 52°23' E 004°55'0 0.0
2015-Aug-22 06:32N 52°23' E 004°55'0 0.0
2015-Aug-22 05:32N 52°23' E 004°55'0 0.0
2015-Aug-22 04:32N 52°23' E 004°55'0 0.0
2015-Aug-22 03:32N 52°23' E 004°55'0 0.0
2015-Aug-22 02:32N 52°23' E 004°55'0 0.0
2015-Aug-22 01:32N 52°23' E 004°55'0 0.0
2015-Aug-22 00:33N 52°23' E 004°55'0 0.0
2015-Aug-21 23:30N 52°23' E 004°55'0 0.0
2015-Aug-21 22:33N 52°23' E 004°55'0 0.0
2015-Aug-21 21:33N 52°23' E 004°55'0 0.0
2015-Aug-21 20:33N 52°23' E 004°55'0 0.0
2015-Aug-21 19:30N 52°23' E 004°55'0 0.0
2015-Aug-21 18:33N 52°23' E 004°55'0 0.0
2015-Aug-21 17:33N 52°23' E 004°55'0 0.0
2015-Aug-21 16:33N 52°23' E 004°55'0 0.0
2015-Aug-21 15:27N 52°23' E 004°55'0 0.0
2015-Aug-21 14:33N 52°23' E 004°55'0 0.0
2015-Aug-21 13:30N 52°23' E 004°55'0 0.0
2015-Aug-21 12:33N 52°23' E 004°55'0 0.0
2015-Aug-21 11:30N 52°23' E 004°55'0 0.0
2015-Aug-21 10:33N 52°23' E 004°55'0 0.0
2015-Aug-21 09:33N 52°23' E 004°55'0 0.0
2015-Aug-21 08:33N 52°23' E 004°55'0 0.0
2015-Aug-21 07:33N 52°23' E 004°55'0 0.0
2015-Aug-21 06:33N 52°23' E 004°55'0 0.0
2015-Aug-21 05:33N 52°23' E 004°55'0 0.0
2015-Aug-21 04:33N 52°23' E 004°55'0 0.0
2015-Aug-21 03:33N 52°23' E 004°55'0 0.0
2015-Aug-21 02:33N 52°23' E 004°55'0 0.0
2015-Aug-21 01:30N 52°23' E 004°55'0 0.1
2015-Aug-21 00:31N 52°23' E 004°55'0 0.1
2015-Aug-20 23:31N 52°23' E 004°55'0 0.0
2015-Aug-20 22:31N 52°23' E 004°55'0 0.0
2015-Aug-20 21:31N 52°23' E 004°55'0 0.0
2015-Aug-20 20:31N 52°23' E 004°55'0 0.0
2015-Aug-20 19:33N 52°23' E 004°55'0 0.0
2015-Aug-20 18:33N 52°23' E 004°55'0 0.0
2015-Aug-20 17:33N 52°23' E 004°55'0 0.0
2015-Aug-20 16:33N 52°23' E 004°55'0 0.0
2015-Aug-20 15:33N 52°23' E 004°55'0 0.0
2015-Aug-20 14:33N 52°23' E 004°55'0 0.0
2015-Aug-20 13:33N 52°23' E 004°55'0 0.0
2015-Aug-20 12:33N 52°23' E 004°55'0 0.0
2015-Aug-20 11:33N 52°23' E 004°55'0 0.0
2015-Aug-20 10:33N 52°23' E 004°55'0 0.0
2015-Aug-20 09:33N 52°23' E 004°55'0 0.0
2015-Aug-20 08:33N 52°23' E 004°55'0 0.0
2015-Aug-20 07:33N 52°23' E 004°55'0 0.0
2015-Aug-20 06:33N 52°23' E 004°55'0 0.0
2015-Aug-20 05:33N 52°23' E 004°55'0 0.0
2015-Aug-20 04:33N 52°23' E 004°55'0 0.0
2015-Aug-20 03:33N 52°23' E 004°55'0 0.0
2015-Aug-20 02:33N 52°23' E 004°55'0 0.0
2015-Aug-20 01:33N 52°23' E 004°55'0 0.0
2015-Aug-20 00:33N 52°23' E 004°55'0 0.0
2015-Aug-19 23:33N 52°23' E 004°55'0 0.0
2015-Aug-19 22:33N 52°23' E 004°55'0 0.0
2015-Aug-19 21:33N 52°23' E 004°55'0 0.0
2015-Aug-19 20:33N 52°23' E 004°55'0 0.0
2015-Aug-19 19:32N 52°23' E 004°55'0 0.0
2015-Aug-19 18:32N 52°23' E 004°55'0 0.0
2015-Aug-19 17:32N 52°23' E 004°55'0 0.1
2015-Aug-19 16:33N 52°23' E 004°55'2 2.2
2015-Aug-19 15:33N 52°24' E 004°53'3 2.8
2015-Aug-19 14:33N 52°25' E 004°48'3 3.2
2015-Aug-19 13:33N 52°26' E 004°43'2 2.2
2015-Aug-19 12:33N 52°27' E 004°40'1 0.5
2015-Aug-19 11:32N 52°28' E 004°40'0 0.0
2015-Aug-19 10:32N 52°28' E 004°40'0 0.0
2015-Aug-19 09:32N 52°28' E 004°40'0 0.0
2015-Aug-19 08:32N 52°28' E 004°40'0 0.0
2015-Aug-19 07:32N 52°28' E 004°40'0 0.0
2015-Aug-19 06:32N 52°28' E 004°40'0 0.0
2015-Aug-19 05:29N 52°28' E 004°40'0 0.0
2015-Aug-19 04:32N 52°28' E 004°40'0 0.0
2015-Aug-19 03:32N 52°28' E 004°40'0 0.0
2015-Aug-19 02:32N 52°28' E 004°40'0 0.0
2015-Aug-19 01:32N 52°28' E 004°40'0 0.0
2015-Aug-19 00:32N 52°28' E 004°40'0 0.0
2015-Aug-18 23:32N 52°28' E 004°40'0 0.0
2015-Aug-18 22:29N 52°28' E 004°40'0 0.0
2015-Aug-18 21:32N 52°28' E 004°40'0 0.1
2015-Aug-18 20:33N 52°28' E 004°40'2 1.8
2015-Aug-18 19:34N 52°28' E 004°37'2 2.3
2015-Aug-18 18:33N 52°28' E 004°33'2 2.4
2015-Aug-18 17:33N 52°29' E 004°29'1 1.1
2015-Aug-18 16:34N 52°29' E 004°28'4 3.8
2015-Aug-18 15:33N 52°29' E 004°21'4 4.3
2015-Aug-18 14:34N 52°30' E 004°14'4 4.2
2015-Aug-18 13:31N 52°32' E 004°08'5 5.4
2015-Aug-18 12:33N 52°36' E 004°04'3 4.5
2015-Aug-18 12:00N 52°36' E 004°00'612.9 220 / 181011.0 1.1 0.516.014.319.0
2015-Aug-18 11:33N 52°42' E 004°00'35 6.3
2015-Aug-18 06:00N 53°12' E 004°30'18 5.0 250 / 181005.7 0.5 0.516.016.020.0
2015-Aug-18 02:19N 53°29' E 004°41'5 6.4
2015-Aug-18 01:31N 53°31' E 004°49'7 6.9
2015-Aug-18 00:33N 53°34' E 004°60'7 7.0
2015-Aug-17 23:31N 53°36' E 005°11'7 7.3
2015-Aug-17 22:33N 53°38' E 005°22'7 6.7
2015-Aug-17 21:33N 53°40' E 005°33'7 6.7
2015-Aug-17 20:33N 53°42' E 005°44'6 6.4
2015-Aug-17 19:33N 53°44' E 005°54'4911.4
2015-Aug-17 15:17N 53°57' E 007°14'4 6.1
2015-Aug-17 14:33N 53°58' E 007°22'1110.8
2015-Aug-17 13:33N 53°59' E 007°40'1010.4
2015-Aug-17 12:33N 53°52' E 007°53'1110.7
2015-Aug-17 11:33N 53°47' E 008°10'1010.1
2015-Aug-17 10:33N 53°40' E 008°22'9 9.1
2015-Aug-17 09:33N 53°34' E 008°33'0 0.3
2015-Aug-17 08:33N 53°34' E 008°33'1 0.9
2015-Aug-17 07:33N 53°33' E 008°34'0 0.0
2015-Aug-17 06:30N 53°33' E 008°34'0 0.0
2015-Aug-17 05:33N 53°33' E 008°34'0 0.0
2015-Aug-17 04:33N 53°33' E 008°34'0 0.0
2015-Aug-17 03:33N 53°33' E 008°34'0 0.0
2015-Aug-17 02:33N 53°33' E 008°34'0 0.0
2015-Aug-17 01:33N 53°33' E 008°34'0 0.0
2015-Aug-17 00:33N 53°33' E 008°34'0 0.0
2015-Aug-16 23:33N 53°33' E 008°34'0 0.0
2015-Aug-16 22:27N 53°33' E 008°34'0 0.0
2015-Aug-16 21:30N 53°33' E 008°34'0 0.0
2015-Aug-16 20:33N 53°33' E 008°34'0 0.0
2015-Aug-16 19:33N 53°33' E 008°34'0 0.0
2015-Aug-16 18:30N 53°33' E 008°34'0 0.0
2015-Aug-16 17:33N 53°33' E 008°34'0 0.0
2015-Aug-16 16:33N 53°33' E 008°34'0 0.0
2015-Aug-16 15:33N 53°33' E 008°34'0 0.0
2015-Aug-16 14:33N 53°33' E 008°34'0 0.0
2015-Aug-16 13:33N 53°33' E 008°34'0 0.0
2015-Aug-16 12:33N 53°33' E 008°34'0 0.0
2015-Aug-16 11:33N 53°33' E 008°34'0 0.0
2015-Aug-16 10:33N 53°33' E 008°34'  
Track history (hours):
 
Tides and Currents Weather Stations Pressure Air Temp Water Temp Dewpoint Dewpoint Depression Visibility Wind Speed Wind Dir Waves Ship Positions

Esmeralda (Chile)

Last reported at 2015-Aug-26 10:29 UTC. Time now 2015-Aug-29 20:55 UTC.
Position N 51°30' W 000°01'.

Length 113 m; draft 7 m.

Type: Military. MMSI: 725019006.

Date/timePositionNaut miles runAvg speedWind from/ knotsBaromVisibWave heightAir tempDewpointWater temp
2015-Aug-26 10:29N 51°30' W 000°01'1 0.9
2015-Aug-26 09:31N 51°30' E 000°01'6 6.4
2015-Aug-26 08:34N 51°30' E 000°11'7 7.2
2015-Aug-26 07:34N 51°27' E 000°21'5 4.6
2015-Aug-26 06:34N 51°29' E 000°28'7 6.7
2015-Aug-26 05:33N 51°30' E 000°38'6 5.9
2015-Aug-26 04:33N 51°30' E 000°48'0 0.3
2015-Aug-26 03:33N 51°30' E 000°47'0 0.0
2015-Aug-26 02:34N 51°30' E 000°47'0 0.0
2015-Aug-26 01:33N 51°30' E 000°47'0 0.0
2015-Aug-26 00:33N 51°30' E 000°47'0 0.0
2015-Aug-25 23:34N 51°30' E 000°47'0 0.0
2015-Aug-25 22:33N 51°30' E 000°47'0 0.0
2015-Aug-25 21:34N 51°30' E 000°47'0 0.0
2015-Aug-25 20:34N 51°30' E 000°47'0 0.1
2015-Aug-25 19:34N 51°30' E 000°47'0 0.0
2015-Aug-25 18:33N 51°30' E 000°47'0 0.0
2015-Aug-25 17:33N 51°30' E 000°47'0 0.3
2015-Aug-25 16:33N 51°30' E 000°47'1010.2
2015-Aug-25 15:33N 51°30' E 001°04'1212.1
2015-Aug-25 14:33N 51°28' E 001°23'6 6.3
2015-Aug-25 13:33N 51°26' E 001°32'5 4.6
2015-Aug-25 12:33N 51°29' E 001°39'6 5.7
2015-Aug-25 11:33N 51°31' E 001°48'5 5.0
2015-Aug-25 10:33N 51°32' E 001°55'6 5.5
2015-Aug-25 09:33N 51°34' E 002°04'19 5.3
2015-Aug-25 06:00N 51°48' E 002°24'26 4.3 260 / 261007.0 5.4 1.516.012.620.0
2015-Aug-25 00:00N 52°06' E 002°54'44 7.3 310 / 291001.0 5.4 0.515.014.221.0
2015-Aug-24 18:00N 52°30' E 003°54'7 5.0 170 / 10995.5 5.4 0.517.017.019.0
2015-Aug-24 16:32N 52°31' E 004°06'9 9.0
2015-Aug-24 15:33N 52°30' E 004°20'9 8.9
2015-Aug-24 14:33N 52°28' E 004°34'2 1.9
2015-Aug-24 13:34N 52°28' E 004°37'8 7.5
2015-Aug-24 12:33N 52°25' E 004°49'5 4.6
2015-Aug-24 11:33N 52°23' E 004°55'0 0.0
2015-Aug-24 10:33N 52°23' E 004°55'0 0.0
2015-Aug-24 09:33N 52°23' E 004°55'0 0.0
2015-Aug-24 08:33N 52°23' E 004°55'0 0.0
2015-Aug-24 07:33N 52°23' E 004°55'0 0.0
2015-Aug-24 06:33N 52°23' E 004°55'0 0.0
2015-Aug-24 05:33N 52°23' E 004°55'0 0.0
2015-Aug-24 04:33N 52°23' E 004°55'0 0.0
2015-Aug-24 03:33N 52°23' E 004°55'0 0.0
2015-Aug-24 02:33N 52°23' E 004°55'0 0.0
2015-Aug-24 01:33N 52°23' E 004°55'0 0.0
2015-Aug-24 00:34N 52°23' E 004°55'0 0.0
2015-Aug-23 23:31N 52°23' E 004°55'0 0.0
2015-Aug-23 22:31N 52°23' E 004°55'0 0.0
2015-Aug-23 21:31N 52°23' E 004°55'0 0.0
2015-Aug-23 20:31N 52°23' E 004°55'0 0.0
2015-Aug-23 19:34N 52°23' E 004°55'0 0.0
2015-Aug-23 18:33N 52°23' E 004°55'0 0.0
2015-Aug-23 17:33N 52°23' E 004°55'0 0.0
2015-Aug-23 16:33N 52°23' E 004°55'0 0.0
2015-Aug-23 15:33N 52°23' E 004°55'0 0.0
2015-Aug-23 14:33N 52°23' E 004°55'0 0.0
2015-Aug-23 13:33N 52°23' E 004°55'0 0.0
2015-Aug-23 12:33N 52°23' E 004°55'0 0.0
2015-Aug-23 11:33N 52°23' E 004°55'0 0.0
2015-Aug-23 10:33N 52°23' E 004°55'0 0.0
2015-Aug-23 09:33N 52°23' E 004°55'0 0.0
2015-Aug-23 08:33N 52°23' E 004°55'0 0.0
2015-Aug-23 07:33N 52°23' E 004°55'0 0.0
2015-Aug-23 06:33N 52°23' E 004°55'0 0.0
2015-Aug-23 05:33N 52°23' E 004°55'0 0.0
2015-Aug-23 04:30N 52°23' E 004°55'0 0.0
2015-Aug-23 03:30N 52°23' E 004°55'0 0.0
2015-Aug-23 02:33N 52°23' E 004°55'0 0.0
2015-Aug-23 01:33N 52°23' E 004°55'0 0.0
2015-Aug-23 00:31N 52°23' E 004°55'0 0.0
2015-Aug-22 23:31N 52°23' E 004°55'0 0.0
2015-Aug-22 22:31N 52°23' E 004°55'0 0.0
2015-Aug-22 21:34N 52°23' E 004°55'0 0.0
2015-Aug-22 20:31N 52°23' E 004°55'0 0.0
2015-Aug-22 19:31N 52°23' E 004°55'0 0.0
2015-Aug-22 18:28N 52°23' E 004°55'0 0.0
2015-Aug-22 17:31N 52°23' E 004°55'0 0.0
2015-Aug-22 16:31N 52°23' E 004°55'0 0.0
2015-Aug-22 15:31N 52°23' E 004°55'0 0.0
2015-Aug-22 14:31N 52°23' E 004°55'0 0.0
2015-Aug-22 13:28N 52°23' E 004°55'0 0.0
2015-Aug-22 12:31N 52°23' E 004°55'0 0.0
2015-Aug-22 11:31N 52°23' E 004°55'0 0.0
2015-Aug-22 10:31N 52°23' E 004°55'0 0.0
2015-Aug-22 09:32N 52°23' E 004°55'0 0.0
2015-Aug-22 08:32N 52°23' E 004°55'0 0.0
2015-Aug-22 07:32N 52°23' E 004°55'0 0.0
2015-Aug-22 06:32N 52°23' E 004°55'0 0.0
2015-Aug-22 05:32N 52°23' E 004°55'0 0.0
2015-Aug-22 04:32N 52°23' E 004°55'0 0.0
2015-Aug-22 03:32N 52°23' E 004°55'0 0.0
2015-Aug-22 02:32N 52°23' E 004°55'0 0.0
2015-Aug-22 01:32N 52°23' E 004°55'0 0.0
2015-Aug-22 00:33N 52°23' E 004°55'0 0.0
2015-Aug-21 23:30N 52°23' E 004°55'0 0.0
2015-Aug-21 22:33N 52°23' E 004°55'0 0.0
2015-Aug-21 21:33N 52°23' E 004°55'0 0.0
2015-Aug-21 20:33N 52°23' E 004°55'0 0.0
2015-Aug-21 19:30N 52°23' E 004°55'0 0.0
2015-Aug-21 18:33N 52°23' E 004°55'0 0.0
2015-Aug-21 17:33N 52°23' E 004°55'0 0.0
2015-Aug-21 16:33N 52°23' E 004°55'0 0.0
2015-Aug-21 15:27N 52°23' E 004°55'0 0.0
2015-Aug-21 14:33N 52°23' E 004°55'0 0.0
2015-Aug-21 13:30N 52°23' E 004°55'0 0.0
2015-Aug-21 12:33N 52°23' E 004°55'0 0.0
2015-Aug-21 11:30N 52°23' E 004°55'0 0.0
2015-Aug-21 10:33N 52°23' E 004°55'0 0.0
2015-Aug-21 09:33N 52°23' E 004°55'0 0.0
2015-Aug-21 08:33N 52°23' E 004°55'0 0.0
2015-Aug-21 07:33N 52°23' E 004°55'0 0.0
2015-Aug-21 06:33N 52°23' E 004°55'0 0.0
2015-Aug-21 05:33N 52°23' E 004°55'0 0.0
2015-Aug-21 04:33N 52°23' E 004°55'0 0.0
2015-Aug-21 03:33N 52°23' E 004°55'0 0.0
2015-Aug-21 02:33N 52°23' E 004°55'0 0.0
2015-Aug-21 01:30N 52°23' E 004°55'0 0.1
2015-Aug-21 00:31N 52°23' E 004°55'0 0.1
2015-Aug-20 23:31N 52°23' E 004°55'0 0.0
2015-Aug-20 22:31N 52°23' E 004°55'0 0.0
2015-Aug-20 21:31N 52°23' E 004°55'0 0.0
2015-Aug-20 20:31N 52°23' E 004°55'0 0.0
2015-Aug-20 19:33N 52°23' E 004°55'0 0.0
2015-Aug-20 18:33N 52°23' E 004°55'0 0.0
2015-Aug-20 17:33N 52°23' E 004°55'0 0.0
2015-Aug-20 16:33N 52°23' E 004°55'0 0.0
2015-Aug-20 15:33N 52°23' E 004°55'0 0.0
2015-Aug-20 14:33N 52°23' E 004°55'0 0.0
2015-Aug-20 13:33N 52°23' E 004°55'0 0.0
2015-Aug-20 12:33N 52°23' E 004°55'0 0.0
2015-Aug-20 11:33N 52°23' E 004°55'0 0.0
2015-Aug-20 10:33N 52°23' E 004°55'0 0.0
2015-Aug-20 09:33N 52°23' E 004°55'0 0.0
2015-Aug-20 08:33N 52°23' E 004°55'0 0.0
2015-Aug-20 07:33N 52°23' E 004°55'0 0.0
2015-Aug-20 06:33N 52°23' E 004°55'0 0.0
2015-Aug-20 05:33N 52°23' E 004°55'0 0.0
2015-Aug-20 04:33N 52°23' E 004°55'0 0.0
2015-Aug-20 03:33N 52°23' E 004°55'0 0.0
2015-Aug-20 02:33N 52°23' E 004°55'0 0.0
2015-Aug-20 01:33N 52°23' E 004°55'0 0.0
2015-Aug-20 00:33N 52°23' E 004°55'0 0.0
2015-Aug-19 23:33N 52°23' E 004°55'0 0.0
2015-Aug-19 22:33N 52°23' E 004°55'0 0.0
2015-Aug-19 21:33N 52°23' E 004°55'0 0.0
2015-Aug-19 20:33N 52°23' E 004°55'0 0.0
2015-Aug-19 19:32N 52°23' E 004°55'0 0.0
2015-Aug-19 18:32N 52°23' E 004°55'0 0.0
2015-Aug-19 17:32N 52°23' E 004°55'0 0.1
2015-Aug-19 16:33N 52°23' E 004°55'2 2.2
2015-Aug-19 15:33N 52°24' E 004°53'3 2.8
2015-Aug-19 14:33N 52°25' E 004°48'3 3.2
2015-Aug-19 13:33N 52°26' E 004°43'2 2.2
2015-Aug-19 12:33N 52°27' E 004°40'1 0.5
2015-Aug-19 11:32N 52°28' E 004°40'0 0.0
2015-Aug-19 10:32N 52°28' E 004°40'0 0.0
2015-Aug-19 09:32N 52°28' E 004°40'0 0.0
2015-Aug-19 08:32N 52°28' E 004°40'0 0.0
2015-Aug-19 07:32N 52°28' E 004°40'0 0.0
2015-Aug-19 06:32N 52°28' E 004°40'0 0.0
2015-Aug-19 05:29N 52°28' E 004°40'0 0.0
2015-Aug-19 04:32N 52°28' E 004°40'0 0.0
2015-Aug-19 03:32N 52°28' E 004°40'0 0.0
2015-Aug-19 02:32N 52°28' E 004°40'0 0.0
2015-Aug-19 01:32N 52°28' E 004°40'0 0.0
2015-Aug-19 00:32N 52°28' E 004°40'0 0.0
2015-Aug-18 23:32N 52°28' E 004°40'0 0.0
2015-Aug-18 22:29N 52°28' E 004°40'0 0.0
2015-Aug-18 21:32N 52°28' E 004°40'0 0.1
2015-Aug-18 20:33N 52°28' E 004°40'2 1.8
2015-Aug-18 19:34N 52°28' E 004°37'2 2.3
2015-Aug-18 18:33N 52°28' E 004°33'2 2.4
2015-Aug-18 17:33N 52°29' E 004°29'1 1.1
2015-Aug-18 16:34N 52°29' E 004°28'4 3.8
2015-Aug-18 15:33N 52°29' E 004°21'4 4.3
2015-Aug-18 14:34N 52°30' E 004°14'4 4.2
2015-Aug-18 13:31N 52°32' E 004°08'5 5.4
2015-Aug-18 12:33N 52°36' E 004°04'3 4.5
2015-Aug-18 12:00N 52°36' E 004°00'612.9 220 / 181011.0 1.1 0.516.014.319.0
2015-Aug-18 11:33N 52°42' E 004°00'35 6.3
2015-Aug-18 06:00N 53°12' E 004°30'18 5.0 250 / 181005.7 0.5 0.516.016.020.0
2015-Aug-18 02:19N 53°29' E 004°41'5 6.4
2015-Aug-18 01:31N 53°31' E 004°49'7 6.9
2015-Aug-18 00:33N 53°34' E 004°60'7 7.0
2015-Aug-17 23:31N 53°36' E 005°11'7 7.3
2015-Aug-17 22:33N 53°38' E 005°22'7 6.7
2015-Aug-17 21:33N 53°40' E 005°33'7 6.7
2015-Aug-17 20:33N 53°42' E 005°44'6 6.4
2015-Aug-17 19:33N 53°44' E 005°54'4911.4
2015-Aug-17 15:17N 53°57' E 007°14'4 6.1
2015-Aug-17 14:33N 53°58' E 007°22'1110.8
2015-Aug-17 13:33N 53°59' E 007°40'1010.4
2015-Aug-17 12:33N 53°52' E 007°53'1110.7
2015-Aug-17 11:33N 53°47' E 008°10'1010.1
2015-Aug-17 10:33N 53°40' E 008°22'9 9.1
2015-Aug-17 09:33N 53°34' E 008°33'0 0.3
2015-Aug-17 08:33N 53°34' E 008°33'1 0.9
2015-Aug-17 07:33N 53°33' E 008°34'0 0.0
2015-Aug-17 06:30N 53°33' E 008°34'0 0.0
2015-Aug-17 05:33N 53°33' E 008°34'0 0.0
2015-Aug-17 04:33N 53°33' E 008°34'0 0.0
2015-Aug-17 03:33N 53°33' E 008°34'0 0.0
2015-Aug-17 02:33N 53°33' E 008°34'0 0.0
2015-Aug-17 01:33N 53°33' E 008°34'0 0.0
2015-Aug-17 00:33N 53°33' E 008°34'0 0.0
2015-Aug-16 23:33N 53°33' E 008°34'0 0.0
2015-Aug-16 22:27N 53°33' E 008°34'0 0.0
2015-Aug-16 21:30N 53°33' E 008°34'0 0.0
2015-Aug-16 20:33N 53°33' E 008°34'0 0.0
2015-Aug-16 19:33N 53°33' E 008°34'0 0.0
2015-Aug-16 18:30N 53°33' E 008°34'0 0.0
2015-Aug-16 17:33N 53°33' E 008°34'0 0.0
2015-Aug-16 16:33N 53°33' E 008°34'0 0.0
2015-Aug-16 15:33N 53°33' E 008°34'0 0.0
2015-Aug-16 14:33N 53°33' E 008°34'0 0.0
2015-Aug-16 13:33N 53°33' E 008°34'0 0.0
2015-Aug-16 12:33N 53°33' E 008°34'0 0.0
2015-Aug-16 11:33N 53°33' E 008°34'0 0.0
2015-Aug-16 10:33N 53°33' E 008°34'  

Dump ship's entire track history